sensor_id;sensor_type;location;lat;lon;timestamp;P1;durP1;ratioP1;P2;durP2;ratioP2
42110;SDS011;27766;52.174;5.456;2024-03-23T00:52:50;29.63;;;7.70;;
42110;SDS011;27766;52.174;5.456;2024-03-23T00:55:17;20.48;;;9.02;;
42110;SDS011;27766;52.174;5.456;2024-03-23T00:57:43;27.20;;;8.45;;
42110;SDS011;27766;52.174;5.456;2024-03-23T01:00:09;22.55;;;8.48;;
42110;SDS011;27766;52.174;5.456;2024-03-23T01:02:36;19.48;;;8.38;;
42110;SDS011;27766;52.174;5.456;2024-03-23T01:05:02;28.45;;;8.95;;
42110;SDS011;27766;52.174;5.456;2024-03-23T01:07:28;22.65;;;9.18;;
42110;SDS011;27766;52.174;5.456;2024-03-23T01:09:54;20.33;;;8.50;;
42110;SDS011;27766;52.174;5.456;2024-03-23T01:12:21;27.88;;;8.07;;
42110;SDS011;27766;52.174;5.456;2024-03-23T01:14:47;21.08;;;7.97;;
42110;SDS011;27766;52.174;5.456;2024-03-23T01:17:13;18.65;;;7.32;;
42110;SDS011;27766;52.174;5.456;2024-03-23T01:19:39;25.83;;;8.07;;
42110;SDS011;27766;52.174;5.456;2024-03-23T01:22:07;17.00;;;8.00;;
42110;SDS011;27766;52.174;5.456;2024-03-23T01:24:35;21.83;;;8.10;;
42110;SDS011;27766;52.174;5.456;2024-03-23T01:27:02;20.75;;;8.93;;
42110;SDS011;27766;52.174;5.456;2024-03-23T01:29:28;17.98;;;8.55;;
42110;SDS011;27766;52.174;5.456;2024-03-23T01:31:54;17.77;;;8.10;;
42110;SDS011;27766;52.174;5.456;2024-03-23T01:34:20;21.13;;;9.38;;
42110;SDS011;27766;52.174;5.456;2024-03-23T01:36:46;21.90;;;7.90;;
42110;SDS011;27766;52.174;5.456;2024-03-23T01:39:13;23.70;;;8.65;;
42110;SDS011;27766;52.174;5.456;2024-03-23T01:41:40;29.25;;;8.50;;
42110;SDS011;27766;52.174;5.456;2024-03-23T01:44:08;18.80;;;8.43;;
42110;SDS011;27766;52.174;5.456;2024-03-23T01:46:35;27.27;;;9.93;;
42110;SDS011;27766;52.174;5.456;2024-03-23T01:49:03;22.50;;;7.60;;
42110;SDS011;27766;52.174;5.456;2024-03-23T01:51:30;16.42;;;8.15;;
42110;SDS011;27766;52.174;5.456;2024-03-23T01:53:58;20.08;;;8.13;;
42110;SDS011;27766;52.174;5.456;2024-03-23T01:56:31;25.75;;;8.82;;
42110;SDS011;27766;52.174;5.456;2024-03-23T01:59:01;23.17;;;7.85;;
42110;SDS011;27766;52.174;5.456;2024-03-23T02:01:28;17.58;;;8.27;;
42110;SDS011;27766;52.174;5.456;2024-03-23T02:03:54;23.38;;;7.97;;
42110;SDS011;27766;52.174;5.456;2024-03-23T02:06:21;22.65;;;8.60;;
42110;SDS011;27766;52.174;5.456;2024-03-23T02:08:47;27.73;;;8.25;;
42110;SDS011;27766;52.174;5.456;2024-03-23T02:11:14;33.38;;;8.43;;
42110;SDS011;27766;52.174;5.456;2024-03-23T02:13:40;20.83;;;8.77;;
42110;SDS011;27766;52.174;5.456;2024-03-23T02:16:06;21.45;;;8.98;;
42110;SDS011;27766;52.174;5.456;2024-03-23T02:18:33;17.60;;;7.97;;
42110;SDS011;27766;52.174;5.456;2024-03-23T02:20:59;28.55;;;8.68;;
42110;SDS011;27766;52.174;5.456;2024-03-23T02:23:25;23.27;;;8.95;;
42110;SDS011;27766;52.174;5.456;2024-03-23T02:25:51;24.15;;;8.57;;
42110;SDS011;27766;52.174;5.456;2024-03-23T02:28:19;17.88;;;7.90;;
42110;SDS011;27766;52.174;5.456;2024-03-23T02:30:45;28.40;;;7.78;;
42110;SDS011;27766;52.174;5.456;2024-03-23T02:33:11;16.67;;;8.25;;
42110;SDS011;27766;52.174;5.456;2024-03-23T02:35:38;20.80;;;8.23;;
42110;SDS011;27766;52.174;5.456;2024-03-23T02:38:04;18.25;;;7.13;;
42110;SDS011;27766;52.174;5.456;2024-03-23T02:40:30;35.42;;;8.98;;
42110;SDS011;27766;52.174;5.456;2024-03-23T02:42:56;20.02;;;8.15;;
42110;SDS011;27766;52.174;5.456;2024-03-23T02:45:23;16.83;;;6.65;;
42110;SDS011;27766;52.174;5.456;2024-03-23T02:47:49;13.38;;;6.32;;
42110;SDS011;27766;52.174;5.456;2024-03-23T02:50:19;23.67;;;7.22;;
42110;SDS011;27766;52.174;5.456;2024-03-23T02:52:45;20.83;;;7.10;;
42110;SDS011;27766;52.174;5.456;2024-03-23T02:55:11;15.68;;;6.07;;
42110;SDS011;27766;52.174;5.456;2024-03-23T02:57:38;13.80;;;6.30;;
42110;SDS011;27766;52.174;5.456;2024-03-23T03:00:05;18.63;;;6.65;;
42110;SDS011;27766;52.174;5.456;2024-03-23T03:02:33;19.35;;;5.22;;
42110;SDS011;27766;52.174;5.456;2024-03-23T03:04:59;26.27;;;6.32;;
42110;SDS011;27766;52.174;5.456;2024-03-23T03:07:26;12.50;;;6.18;;
42110;SDS011;27766;52.174;5.456;2024-03-23T03:09:52;20.98;;;6.55;;
42110;SDS011;27766;52.174;5.456;2024-03-23T03:12:18;11.88;;;5.18;;
42110;SDS011;27766;52.174;5.456;2024-03-23T03:14:45;13.68;;;5.20;;
42110;SDS011;27766;52.174;5.456;2024-03-23T03:17:11;15.80;;;5.35;;
42110;SDS011;27766;52.174;5.456;2024-03-23T03:19:37;21.42;;;4.85;;
42110;SDS011;27766;52.174;5.456;2024-03-23T03:22:03;18.60;;;5.82;;
42110;SDS011;27766;52.174;5.456;2024-03-23T03:24:30;18.77;;;5.85;;
42110;SDS011;27766;52.174;5.456;2024-03-23T03:26:56;10.73;;;5.40;;
42110;SDS011;27766;52.174;5.456;2024-03-23T03:29:24;8.88;;;4.25;;
42110;SDS011;27766;52.174;5.456;2024-03-23T03:31:50;9.88;;;4.30;;
42110;SDS011;27766;52.174;5.456;2024-03-23T03:34:16;8.85;;;4.35;;
42110;SDS011;27766;52.174;5.456;2024-03-23T03:36:42;9.63;;;4.10;;
42110;SDS011;27766;52.174;5.456;2024-03-23T03:39:09;9.82;;;4.68;;
42110;SDS011;27766;52.174;5.456;2024-03-23T03:41:35;17.17;;;3.97;;
42110;SDS011;27766;52.174;5.456;2024-03-23T03:44:01;17.95;;;4.90;;
42110;SDS011;27766;52.174;5.456;2024-03-23T03:46:28;13.98;;;4.38;;
42110;SDS011;27766;52.174;5.456;2024-03-23T03:48:54;6.63;;;2.55;;
42110;SDS011;27766;52.174;5.456;2024-03-23T03:51:20;8.85;;;3.80;;
42110;SDS011;27766;52.174;5.456;2024-03-23T03:53:46;13.40;;;4.30;;
42110;SDS011;27766;52.174;5.456;2024-03-23T03:56:13;11.35;;;3.75;;
42110;SDS011;27766;52.174;5.456;2024-03-23T03:58:39;14.93;;;3.92;;
42110;SDS011;27766;52.174;5.456;2024-03-23T04:01:06;13.05;;;3.53;;
42110;SDS011;27766;52.174;5.456;2024-03-23T04:03:32;11.32;;;3.45;;
42110;SDS011;27766;52.174;5.456;2024-03-23T04:05:58;18.48;;;3.45;;
42110;SDS011;27766;52.174;5.456;2024-03-23T04:08:24;11.90;;;4.32;;
42110;SDS011;27766;52.174;5.456;2024-03-23T04:10:50;12.93;;;3.08;;
42110;SDS011;27766;52.174;5.456;2024-03-23T04:13:16;19.48;;;3.55;;
42110;SDS011;27766;52.174;5.456;2024-03-23T04:15:42;14.07;;;3.88;;
42110;SDS011;27766;52.174;5.456;2024-03-23T04:18:08;14.18;;;3.97;;
42110;SDS011;27766;52.174;5.456;2024-03-23T04:20:34;12.65;;;3.95;;
42110;SDS011;27766;52.174;5.456;2024-03-23T04:23:01;6.05;;;3.30;;
42110;SDS011;27766;52.174;5.456;2024-03-23T04:25:27;12.85;;;3.60;;
42110;SDS011;27766;52.174;5.456;2024-03-23T04:27:53;15.02;;;4.35;;
42110;SDS011;27766;52.174;5.456;2024-03-23T04:30:19;9.73;;;4.05;;
42110;SDS011;27766;52.174;5.456;2024-03-23T04:32:46;7.35;;;3.50;;
42110;SDS011;27766;52.174;5.456;2024-03-23T04:35:13;7.82;;;3.13;;
42110;SDS011;27766;52.174;5.456;2024-03-23T04:37:39;6.85;;;3.63;;
42110;SDS011;27766;52.174;5.456;2024-03-23T04:40:08;9.55;;;3.58;;
42110;SDS011;27766;52.174;5.456;2024-03-23T04:42:35;9.43;;;3.13;;
42110;SDS011;27766;52.174;5.456;2024-03-23T04:45:01;8.80;;;3.63;;
42110;SDS011;27766;52.174;5.456;2024-03-23T04:47:27;11.23;;;3.75;;
42110;SDS011;27766;52.174;5.456;2024-03-23T04:49:53;10.65;;;3.60;;
42110;SDS011;27766;52.174;5.456;2024-03-23T04:52:20;14.07;;;4.78;;
42110;SDS011;27766;52.174;5.456;2024-03-23T04:54:46;13.90;;;3.95;;
42110;SDS011;27766;52.174;5.456;2024-03-23T04:57:12;8.45;;;3.67;;
42110;SDS011;27766;52.174;5.456;2024-03-23T04:59:38;16.17;;;4.05;;
42110;SDS011;27766;52.174;5.456;2024-03-23T05:02:04;7.05;;;3.70;;
42110;SDS011;27766;52.174;5.456;2024-03-23T05:04:31;12.30;;;4.40;;
42110;SDS011;27766;52.174;5.456;2024-03-23T05:06:58;7.93;;;4.05;;
42110;SDS011;27766;52.174;5.456;2024-03-23T05:09:24;17.90;;;4.90;;
42110;SDS011;27766;52.174;5.456;2024-03-23T05:11:50;14.50;;;4.05;;
42110;SDS011;27766;52.174;5.456;2024-03-23T05:14:16;10.48;;;4.38;;
42110;SDS011;27766;52.174;5.456;2024-03-23T05:16:42;12.77;;;4.90;;
42110;SDS011;27766;52.174;5.456;2024-03-23T05:19:08;11.27;;;4.90;;
42110;SDS011;27766;52.174;5.456;2024-03-23T05:21:35;7.72;;;3.50;;
42110;SDS011;27766;52.174;5.456;2024-03-23T05:24:01;12.48;;;3.53;;
42110;SDS011;27766;52.174;5.456;2024-03-23T05:26:28;15.27;;;2.92;;
42110;SDS011;27766;52.174;5.456;2024-03-23T05:28:55;9.48;;;3.08;;
42110;SDS011;27766;52.174;5.456;2024-03-23T05:31:28;9.40;;;3.85;;
42110;SDS011;27766;52.174;5.456;2024-03-23T05:33:57;6.93;;;3.30;;
42110;SDS011;27766;52.174;5.456;2024-03-23T05:36:24;7.65;;;2.80;;
42110;SDS011;27766;52.174;5.456;2024-03-23T05:38:50;6.30;;;2.35;;
42110;SDS011;27766;52.174;5.456;2024-03-23T05:41:16;5.60;;;2.60;;
42110;SDS011;27766;52.174;5.456;2024-03-23T05:43:42;7.72;;;2.75;;
42110;SDS011;27766;52.174;5.456;2024-03-23T05:46:08;10.85;;;2.83;;
42110;SDS011;27766;52.174;5.456;2024-03-23T05:48:35;3.65;;;1.92;;
42110;SDS011;27766;52.174;5.456;2024-03-23T05:51:02;6.38;;;2.05;;
42110;SDS011;27766;52.174;5.456;2024-03-23T05:53:28;15.57;;;2.78;;
42110;SDS011;27766;52.174;5.456;2024-03-23T05:56:02;10.68;;;2.40;;
42110;SDS011;27766;52.174;5.456;2024-03-23T05:58:32;10.55;;;2.40;;
42110;SDS011;27766;52.174;5.456;2024-03-23T06:01:01;8.52;;;2.13;;
42110;SDS011;27766;52.174;5.456;2024-03-23T06:03:28;7.45;;;2.50;;
42110;SDS011;27766;52.174;5.456;2024-03-23T06:05:54;10.02;;;2.35;;
42110;SDS011;27766;52.174;5.456;2024-03-23T06:08:21;7.38;;;2.35;;
42110;SDS011;27766;52.174;5.456;2024-03-23T06:10:48;10.07;;;2.80;;
42110;SDS011;27766;52.174;5.456;2024-03-23T06:13:14;9.95;;;2.20;;
42110;SDS011;27766;52.174;5.456;2024-03-23T06:15:40;5.93;;;2.70;;
42110;SDS011;27766;52.174;5.456;2024-03-23T06:18:07;14.18;;;2.95;;
42110;SDS011;27766;52.174;5.456;2024-03-23T06:20:33;19.25;;;2.38;;
42110;SDS011;27766;52.174;5.456;2024-03-23T06:23:03;5.00;;;1.80;;
42110;SDS011;27766;52.174;5.456;2024-03-23T06:25:29;10.52;;;2.28;;
42110;SDS011;27766;52.174;5.456;2024-03-23T06:27:55;5.10;;;2.00;;
42110;SDS011;27766;52.174;5.456;2024-03-23T06:30:22;5.75;;;1.95;;
42110;SDS011;27766;52.174;5.456;2024-03-23T06:32:48;7.07;;;2.25;;
42110;SDS011;27766;52.174;5.456;2024-03-23T06:35:14;11.88;;;2.88;;
42110;SDS011;27766;52.174;5.456;2024-03-23T06:37:40;10.50;;;2.88;;
42110;SDS011;27766;52.174;5.456;2024-03-23T06:40:07;10.13;;;2.53;;
42110;SDS011;27766;52.174;5.456;2024-03-23T06:42:36;8.30;;;2.10;;
42110;SDS011;27766;52.174;5.456;2024-03-23T06:45:02;7.20;;;2.95;;
42110;SDS011;27766;52.174;5.456;2024-03-23T06:47:30;10.38;;;2.17;;
42110;SDS011;27766;52.174;5.456;2024-03-23T06:49:57;10.55;;;2.47;;
42110;SDS011;27766;52.174;5.456;2024-03-23T06:52:23;9.23;;;2.35;;
42110;SDS011;27766;52.174;5.456;2024-03-23T06:54:49;9.00;;;2.33;;
42110;SDS011;27766;52.174;5.456;2024-03-23T06:57:15;9.30;;;2.70;;
42110;SDS011;27766;52.174;5.456;2024-03-23T06:59:41;4.47;;;1.70;;
42110;SDS011;27766;52.174;5.456;2024-03-23T07:02:07;6.07;;;2.38;;
42110;SDS011;27766;52.174;5.456;2024-03-23T07:04:34;7.55;;;2.65;;
42110;SDS011;27766;52.174;5.456;2024-03-23T07:07:01;14.27;;;3.20;;
42110;SDS011;27766;52.174;5.456;2024-03-23T07:09:28;7.60;;;2.13;;
42110;SDS011;27766;52.174;5.456;2024-03-23T07:11:55;6.18;;;1.92;;
42110;SDS011;27766;52.174;5.456;2024-03-23T07:14:22;6.10;;;2.10;;
42110;SDS011;27766;52.174;5.456;2024-03-23T07:16:49;4.82;;;2.30;;
42110;SDS011;27766;52.174;5.456;2024-03-23T07:19:16;11.85;;;3.83;;
42110;SDS011;27766;52.174;5.456;2024-03-23T07:21:44;7.25;;;2.35;;
42110;SDS011;27766;52.174;5.456;2024-03-23T07:24:11;9.95;;;2.03;;
42110;SDS011;27766;52.174;5.456;2024-03-23T07:26:38;6.50;;;2.17;;
42110;SDS011;27766;52.174;5.456;2024-03-23T07:29:04;4.82;;;2.63;;
42110;SDS011;27766;52.174;5.456;2024-03-23T07:31:31;6.55;;;3.38;;
42110;SDS011;27766;52.174;5.456;2024-03-23T07:33:57;14.57;;;3.45;;
42110;SDS011;27766;52.174;5.456;2024-03-23T07:36:23;10.20;;;2.83;;
42110;SDS011;27766;52.174;5.456;2024-03-23T07:38:50;7.45;;;3.15;;
42110;SDS011;27766;52.174;5.456;2024-03-23T07:41:17;13.48;;;2.67;;
42110;SDS011;27766;52.174;5.456;2024-03-23T07:43:45;8.38;;;3.10;;
42110;SDS011;27766;52.174;5.456;2024-03-23T07:46:12;10.23;;;2.90;;
42110;SDS011;27766;52.174;5.456;2024-03-23T07:48:39;4.32;;;1.88;;
42110;SDS011;27766;52.174;5.456;2024-03-23T07:51:09;12.65;;;2.75;;
42110;SDS011;27766;52.174;5.456;2024-03-23T07:53:36;17.58;;;2.92;;
42110;SDS011;27766;52.174;5.456;2024-03-23T07:56:05;9.77;;;2.25;;
42110;SDS011;27766;52.174;5.456;2024-03-23T07:58:32;11.85;;;2.50;;
42110;SDS011;27766;52.174;5.456;2024-03-23T08:01:06;12.00;;;2.60;;
42110;SDS011;27766;52.174;5.456;2024-03-23T08:03:35;10.80;;;2.80;;
42110;SDS011;27766;52.174;5.456;2024-03-23T08:08:35;5.40;;;2.50;;
42110;SDS011;27766;52.174;5.456;2024-03-23T08:11:01;10.23;;;2.90;;
42110;SDS011;27766;52.174;5.456;2024-03-23T08:13:27;7.47;;;2.25;;
42110;SDS011;27766;52.174;5.456;2024-03-23T08:15:57;5.95;;;1.67;;
42110;SDS011;27766;52.174;5.456;2024-03-23T08:20:57;5.20;;;2.42;;
42110;SDS011;27766;52.174;5.456;2024-03-23T08:23:27;6.80;;;1.85;;
42110;SDS011;27766;52.174;5.456;2024-03-23T08:25:57;3.05;;;1.73;;
42110;SDS011;27766;52.174;5.456;2024-03-23T08:28:25;4.53;;;2.10;;
42110;SDS011;27766;52.174;5.456;2024-03-23T08:30:53;5.07;;;2.15;;
42110;SDS011;27766;52.174;5.456;2024-03-23T08:33:20;12.23;;;2.75;;
42110;SDS011;27766;52.174;5.456;2024-03-23T08:36:20;7.38;;;2.28;;
42110;SDS011;27766;52.174;5.456;2024-03-23T08:38:40;9.38;;;2.65;;
42110;SDS011;27766;52.174;5.456;2024-03-23T08:41:07;4.10;;;1.73;;
42110;SDS011;27766;52.174;5.456;2024-03-23T08:43:38;6.38;;;2.05;;
42110;SDS011;27766;52.174;5.456;2024-03-23T08:46:05;4.07;;;1.67;;
42110;SDS011;27766;52.174;5.456;2024-03-23T08:48:33;11.85;;;1.33;;
42110;SDS011;27766;52.174;5.456;2024-03-23T08:51:04;8.27;;;1.50;;
42110;SDS011;27766;52.174;5.456;2024-03-23T08:53:31;5.65;;;1.52;;
42110;SDS011;27766;52.174;5.456;2024-03-23T08:55:58;3.60;;;1.25;;
42110;SDS011;27766;52.174;5.456;2024-03-23T08:58:26;6.78;;;1.92;;
42110;SDS011;27766;52.174;5.456;2024-03-23T09:00:54;7.65;;;2.08;;
42110;SDS011;27766;52.174;5.456;2024-03-23T09:03:23;9.88;;;1.58;;
42110;SDS011;27766;52.174;5.456;2024-03-23T09:05:50;7.90;;;1.90;;
42110;SDS011;27766;52.174;5.456;2024-03-23T09:08:17;6.00;;;1.52;;
42110;SDS011;27766;52.174;5.456;2024-03-23T09:10:43;9.50;;;2.20;;
42110;SDS011;27766;52.174;5.456;2024-03-23T09:13:10;4.55;;;0.98;;
42110;SDS011;27766;52.174;5.456;2024-03-23T09:15:37;5.32;;;1.15;;
42110;SDS011;27766;52.174;5.456;2024-03-23T09:18:11;5.03;;;1.27;;
42110;SDS011;27766;52.174;5.456;2024-03-23T09:20:37;6.63;;;1.10;;
42110;SDS011;27766;52.174;5.456;2024-03-23T09:23:03;3.00;;;0.95;;
42110;SDS011;27766;52.174;5.456;2024-03-23T09:25:30;5.15;;;1.45;;
42110;SDS011;27766;52.174;5.456;2024-03-23T09:27:56;2.92;;;1.27;;
42110;SDS011;27766;52.174;5.456;2024-03-23T09:30:22;3.70;;;1.10;;
42110;SDS011;27766;52.174;5.456;2024-03-23T09:32:48;2.92;;;1.30;;
42110;SDS011;27766;52.174;5.456;2024-03-23T09:35:15;3.78;;;1.30;;
42110;SDS011;27766;52.174;5.456;2024-03-23T09:37:41;8.82;;;1.52;;
42110;SDS011;27766;52.174;5.456;2024-03-23T09:40:11;4.85;;;1.63;;
42110;SDS011;27766;52.174;5.456;2024-03-23T09:42:38;9.05;;;1.48;;
42110;SDS011;27766;52.174;5.456;2024-03-23T09:45:10;4.47;;;1.67;;
42110;SDS011;27766;52.174;5.456;2024-03-23T09:47:43;3.85;;;1.38;;
42110;SDS011;27766;52.174;5.456;2024-03-23T09:50:09;14.18;;;1.65;;
42110;SDS011;27766;52.174;5.456;2024-03-23T09:52:36;3.28;;;1.50;;
42110;SDS011;27766;52.174;5.456;2024-03-23T09:55:03;5.30;;;1.75;;
42110;SDS011;27766;52.174;5.456;2024-03-23T09:57:30;3.88;;;1.52;;
42110;SDS011;27766;52.174;5.456;2024-03-23T09:59:56;4.80;;;1.58;;
42110;SDS011;27766;52.174;5.456;2024-03-23T10:02:24;6.20;;;1.65;;
42110;SDS011;27766;52.174;5.456;2024-03-23T10:04:51;6.03;;;2.05;;
42110;SDS011;27766;52.174;5.456;2024-03-23T10:07:21;3.55;;;1.67;;
42110;SDS011;27766;52.174;5.456;2024-03-23T10:09:50;8.18;;;1.95;;
42110;SDS011;27766;52.174;5.456;2024-03-23T10:12:19;4.57;;;1.60;;
42110;SDS011;27766;52.174;5.456;2024-03-23T10:14:46;9.15;;;2.28;;
42110;SDS011;27766;52.174;5.456;2024-03-23T10:17:13;6.20;;;1.70;;
42110;SDS011;27766;52.174;5.456;2024-03-23T10:19:41;8.82;;;2.58;;
42110;SDS011;27766;52.174;5.456;2024-03-23T10:22:08;5.38;;;1.42;;
42110;SDS011;27766;52.174;5.456;2024-03-23T10:24:35;9.40;;;1.45;;
42110;SDS011;27766;52.174;5.456;2024-03-23T10:27:01;4.65;;;1.52;;
42110;SDS011;27766;52.174;5.456;2024-03-23T10:29:28;4.40;;;1.58;;
42110;SDS011;27766;52.174;5.456;2024-03-23T10:31:55;9.95;;;2.60;;
42110;SDS011;27766;52.174;5.456;2024-03-23T10:34:32;10.07;;;2.53;;
42110;SDS011;27766;52.174;5.456;2024-03-23T10:36:59;3.50;;;1.85;;
42110;SDS011;27766;52.174;5.456;2024-03-23T10:39:29;3.97;;;1.60;;
42110;SDS011;27766;52.174;5.456;2024-03-23T10:41:57;6.38;;;1.83;;
42110;SDS011;27766;52.174;5.456;2024-03-23T10:44:26;3.53;;;1.33;;
42110;SDS011;27766;52.174;5.456;2024-03-23T10:46:55;3.15;;;1.23;;
42110;SDS011;27766;52.174;5.456;2024-03-23T10:49:25;3.70;;;1.65;;
42110;SDS011;27766;52.174;5.456;2024-03-23T10:52:02;4.13;;;1.70;;
42110;SDS011;27766;52.174;5.456;2024-03-23T10:54:29;5.60;;;1.35;;
42110;SDS011;27766;52.174;5.456;2024-03-23T10:57:02;4.68;;;1.58;;
42110;SDS011;27766;52.174;5.456;2024-03-23T10:59:31;7.00;;;1.83;;
42110;SDS011;27766;52.174;5.456;2024-03-23T11:01:58;4.70;;;1.10;;
42110;SDS011;27766;52.174;5.456;2024-03-23T11:04:30;6.65;;;1.70;;
42110;SDS011;27766;52.174;5.456;2024-03-23T11:07:00;4.15;;;1.67;;
42110;SDS011;27766;52.174;5.456;2024-03-23T11:09:40;5.05;;;1.35;;
42110;SDS011;27766;52.174;5.456;2024-03-23T11:15:11;6.15;;;1.52;;
42110;SDS011;27766;52.174;5.456;2024-03-23T11:17:38;4.25;;;1.35;;
42110;SDS011;27766;52.174;5.456;2024-03-23T11:20:05;11.57;;;1.88;;
42110;SDS011;27766;52.174;5.456;2024-03-23T11:22:37;5.35;;;1.45;;
42110;SDS011;27766;52.174;5.456;2024-03-23T11:25:19;11.50;;;1.98;;
42110;SDS011;27766;52.174;5.456;2024-03-23T11:27:47;3.65;;;1.20;;
42110;SDS011;27766;52.174;5.456;2024-03-23T11:30:21;3.65;;;1.63;;
42110;SDS011;27766;52.174;5.456;2024-03-23T11:32:49;6.50;;;1.80;;
42110;SDS011;27766;52.174;5.456;2024-03-23T11:38:11;4.30;;;1.38;;
42110;SDS011;27766;52.174;5.456;2024-03-23T11:40:45;3.63;;;1.23;;
42110;SDS011;27766;52.174;5.456;2024-03-23T11:43:14;5.68;;;1.70;;
42110;SDS011;27766;52.174;5.456;2024-03-23T11:45:50;12.90;;;2.35;;
42110;SDS011;27766;52.174;5.456;2024-03-23T11:48:19;7.50;;;1.90;;
42110;SDS011;27766;52.174;5.456;2024-03-23T11:50:47;7.10;;;1.67;;
42110;SDS011;27766;52.174;5.456;2024-03-23T11:53:15;6.28;;;1.73;;
42110;SDS011;27766;52.174;5.456;2024-03-23T11:58:12;6.97;;;1.63;;
42110;SDS011;27766;52.174;5.456;2024-03-23T12:00:39;6.60;;;1.55;;
42110;SDS011;27766;52.174;5.456;2024-03-23T12:03:06;7.97;;;1.50;;
42110;SDS011;27766;52.174;5.456;2024-03-23T12:05:32;6.03;;;1.33;;
42110;SDS011;27766;52.174;5.456;2024-03-23T12:11:08;5.70;;;1.55;;
42110;SDS011;27766;52.174;5.456;2024-03-23T12:13:37;10.98;;;1.73;;
42110;SDS011;27766;52.174;5.456;2024-03-23T12:16:15;5.47;;;2.08;;
42110;SDS011;27766;52.174;5.456;2024-03-23T12:21:15;5.28;;;1.42;;
42110;SDS011;27766;52.174;5.456;2024-03-23T12:23:42;4.30;;;1.38;;
42110;SDS011;27766;52.174;5.456;2024-03-23T12:26:11;3.33;;;1.67;;
42110;SDS011;27766;52.174;5.456;2024-03-23T12:28:38;4.55;;;1.52;;
42110;SDS011;27766;52.174;5.456;2024-03-23T12:31:04;7.22;;;1.10;;
42110;SDS011;27766;52.174;5.456;2024-03-23T12:33:31;3.95;;;1.38;;
42110;SDS011;27766;52.174;5.456;2024-03-23T12:35:57;3.90;;;1.52;;
42110;SDS011;27766;52.174;5.456;2024-03-23T12:38:23;5.95;;;1.48;;
42110;SDS011;27766;52.174;5.456;2024-03-23T12:40:49;9.07;;;1.45;;
42110;SDS011;27766;52.174;5.456;2024-03-23T12:43:16;5.63;;;1.90;;
42110;SDS011;27766;52.174;5.456;2024-03-23T12:45:49;2.13;;;1.27;;
42110;SDS011;27766;52.174;5.456;2024-03-23T12:48:16;4.87;;;1.53;;
42110;SDS011;27766;52.174;5.456;2024-03-23T12:50:42;3.50;;;1.27;;
42110;SDS011;27766;52.174;5.456;2024-03-23T12:53:08;4.95;;;1.13;;
42110;SDS011;27766;52.174;5.456;2024-03-23T12:55:34;3.88;;;1.42;;
42110;SDS011;27766;52.174;5.456;2024-03-23T12:58:01;5.68;;;1.80;;
42110;SDS011;27766;52.174;5.456;2024-03-23T13:00:27;9.05;;;1.83;;
42110;SDS011;27766;52.174;5.456;2024-03-23T13:02:53;7.03;;;1.30;;
42110;SDS011;27766;52.174;5.456;2024-03-23T13:05:19;6.95;;;1.67;;
42110;SDS011;27766;52.174;5.456;2024-03-23T13:07:45;5.85;;;1.20;;
42110;SDS011;27766;52.174;5.456;2024-03-23T13:10:12;2.70;;;1.50;;
42110;SDS011;27766;52.174;5.456;2024-03-23T13:12:38;4.95;;;1.25;;
42110;SDS011;27766;52.174;5.456;2024-03-23T13:15:05;5.85;;;1.88;;
42110;SDS011;27766;52.174;5.456;2024-03-23T13:17:32;4.35;;;1.60;;
42110;SDS011;27766;52.174;5.456;2024-03-23T13:19:58;4.72;;;1.20;;
42110;SDS011;27766;52.174;5.456;2024-03-23T13:22:24;4.97;;;1.05;;
42110;SDS011;27766;52.174;5.456;2024-03-23T13:24:50;5.15;;;1.20;;
42110;SDS011;27766;52.174;5.456;2024-03-23T13:27:16;4.90;;;1.15;;
42110;SDS011;27766;52.174;5.456;2024-03-23T13:29:42;4.53;;;1.42;;
42110;SDS011;27766;52.174;5.456;2024-03-23T13:32:08;8.25;;;1.55;;
42110;SDS011;27766;52.174;5.456;2024-03-23T13:34:35;5.43;;;1.17;;
42110;SDS011;27766;52.174;5.456;2024-03-23T13:37:01;1.63;;;0.68;;
42110;SDS011;27766;52.174;5.456;2024-03-23T13:39:29;9.63;;;0.65;;
42110;SDS011;27766;52.174;5.456;2024-03-23T13:41:56;1.40;;;0.55;;
42110;SDS011;27766;52.174;5.456;2024-03-23T13:44:22;0.45;;;0.20;;
42110;SDS011;27766;52.174;5.456;2024-03-23T13:46:48;1.15;;;0.30;;
42110;SDS011;27766;52.174;5.456;2024-03-23T13:49:24;2.08;;;0.75;;
42110;SDS011;27766;52.174;5.456;2024-03-23T13:51:54;4.15;;;0.90;;
42110;SDS011;27766;52.174;5.456;2024-03-23T13:54:21;3.28;;;0.95;;
42110;SDS011;27766;52.174;5.456;2024-03-23T13:56:48;3.42;;;0.95;;
42110;SDS011;27766;52.174;5.456;2024-03-23T13:59:15;4.20;;;1.25;;
42110;SDS011;27766;52.174;5.456;2024-03-23T14:01:42;3.10;;;1.00;;
42110;SDS011;27766;52.174;5.456;2024-03-23T14:04:08;1.67;;;1.08;;
42110;SDS011;27766;52.174;5.456;2024-03-23T14:06:34;3.50;;;1.35;;
42110;SDS011;27766;52.174;5.456;2024-03-23T14:09:00;3.72;;;1.55;;
42110;SDS011;27766;52.174;5.456;2024-03-23T14:11:26;7.60;;;1.42;;
42110;SDS011;27766;52.174;5.456;2024-03-23T14:13:54;5.82;;;1.50;;
42110;SDS011;27766;52.174;5.456;2024-03-23T14:16:20;7.63;;;1.45;;
42110;SDS011;27766;52.174;5.456;2024-03-23T14:18:47;4.07;;;1.58;;
42110;SDS011;27766;52.174;5.456;2024-03-23T14:21:13;6.32;;;1.58;;
42110;SDS011;27766;52.174;5.456;2024-03-23T14:23:39;8.80;;;1.63;;
42110;SDS011;27766;52.174;5.456;2024-03-23T14:26:06;5.65;;;1.40;;
42110;SDS011;27766;52.174;5.456;2024-03-23T14:28:34;4.78;;;1.55;;
42110;SDS011;27766;52.174;5.456;2024-03-23T14:31:00;9.35;;;1.73;;
42110;SDS011;27766;52.174;5.456;2024-03-23T14:33:27;4.18;;;1.75;;
42110;SDS011;27766;52.174;5.456;2024-03-23T14:35:53;2.97;;;1.40;;
42110;SDS011;27766;52.174;5.456;2024-03-23T14:38:20;3.25;;;1.15;;
42110;SDS011;27766;52.174;5.456;2024-03-23T14:40:46;6.50;;;1.40;;
42110;SDS011;27766;52.174;5.456;2024-03-23T14:43:12;4.30;;;1.10;;
42110;SDS011;27766;52.174;5.456;2024-03-23T14:45:48;7.43;;;1.92;;
42110;SDS011;27766;52.174;5.456;2024-03-23T14:48:40;3.88;;;1.13;;
42110;SDS011;27766;52.174;5.456;2024-03-23T14:51:08;5.07;;;1.30;;
42110;SDS011;27766;52.174;5.456;2024-03-23T14:53:35;3.70;;;0.95;;
42110;SDS011;27766;52.174;5.456;2024-03-23T14:56:02;2.80;;;1.45;;
42110;SDS011;27766;52.174;5.456;2024-03-23T14:58:29;6.55;;;1.52;;
42110;SDS011;27766;52.174;5.456;2024-03-23T15:03:28;6.53;;;1.27;;
42110;SDS011;27766;52.174;5.456;2024-03-23T15:05:58;3.75;;;1.02;;
42110;SDS011;27766;52.174;5.456;2024-03-23T15:08:25;8.90;;;1.85;;
42110;SDS011;27766;52.174;5.456;2024-03-23T15:10:53;6.15;;;1.27;;
42110;SDS011;27766;52.174;5.456;2024-03-23T15:13:19;4.35;;;1.27;;
42110;SDS011;27766;52.174;5.456;2024-03-23T15:15:48;8.73;;;1.58;;
42110;SDS011;27766;52.174;5.456;2024-03-23T15:18:15;4.70;;;1.55;;
42110;SDS011;27766;52.174;5.456;2024-03-23T15:20:42;6.30;;;1.17;;
42110;SDS011;27766;52.174;5.456;2024-03-23T15:23:20;5.15;;;1.13;;
42110;SDS011;27766;52.174;5.456;2024-03-23T15:26:00;1.92;;;0.75;;
42110;SDS011;27766;52.174;5.456;2024-03-23T15:28:27;7.25;;;1.42;;
42110;SDS011;27766;52.174;5.456;2024-03-23T15:31:04;4.57;;;1.40;;
42110;SDS011;27766;52.174;5.456;2024-03-23T15:33:30;3.80;;;1.25;;
42110;SDS011;27766;52.174;5.456;2024-03-23T15:36:00;7.25;;;1.75;;
42110;SDS011;27766;52.174;5.456;2024-03-23T15:38:26;4.85;;;1.55;;
42110;SDS011;27766;52.174;5.456;2024-03-23T15:40:53;5.95;;;1.00;;
42110;SDS011;27766;52.174;5.456;2024-03-23T15:43:19;4.32;;;1.48;;
42110;SDS011;27766;52.174;5.456;2024-03-23T15:45:53;4.95;;;1.08;;
42110;SDS011;27766;52.174;5.456;2024-03-23T15:48:23;6.70;;;1.23;;
42110;SDS011;27766;52.174;5.456;2024-03-23T15:50:51;3.83;;;2.50;;
42110;SDS011;27766;52.174;5.456;2024-03-23T15:53:21;5.85;;;1.90;;
42110;SDS011;27766;52.174;5.456;2024-03-23T15:56:00;3.45;;;0.98;;
42110;SDS011;27766;52.174;5.456;2024-03-23T15:58:28;3.20;;;1.05;;